createdAt,value
2023-05-19T00:02:06.186Z,5.15
2023-05-19T00:07:01.343Z,4.97
2023-05-19T00:09:28.413Z,5.70
2023-05-19T00:11:56.698Z,5.32
2023-05-19T00:14:23.737Z,5.35
2023-05-19T00:16:50.733Z,6.43
2023-05-19T00:19:17.763Z,5.60
2023-05-19T00:21:44.474Z,5.28
2023-05-19T00:24:11.262Z,5.45
2023-05-19T00:26:38.032Z,6.25
2023-05-19T00:29:05.784Z,5.60
2023-05-19T00:31:34.142Z,5.35
2023-05-19T00:34:01.186Z,5.80
2023-05-19T00:36:28.587Z,5.72
2023-05-19T00:38:56.158Z,6.32
2023-05-19T00:41:22.968Z,7.50
2023-05-19T00:43:50.830Z,6.03
2023-05-19T00:46:18.870Z,6.53
2023-05-19T00:48:45.692Z,7.07
2023-05-19T00:51:14.843Z,6.13
2023-05-19T00:53:41.581Z,6.10
2023-05-19T00:56:08.350Z,6.60
2023-05-19T00:58:36.328Z,6.53
2023-05-19T01:01:04.922Z,7.82
2023-05-19T01:03:35.201Z,6.03
2023-05-19T01:06:06.166Z,6.78
2023-05-19T01:08:33.548Z,7.50
2023-05-19T01:11:00.491Z,7.05
2023-05-19T01:13:27.775Z,6.63
2023-05-19T01:16:02.334Z,6.50
2023-05-19T01:18:43.355Z,6.72
2023-05-19T01:21:10.710Z,6.88
2023-05-19T01:23:51.310Z,6.95
2023-05-19T01:26:31.155Z,6.63
2023-05-19T01:29:22.037Z,8.15
2023-05-19T01:31:50.475Z,7.78
2023-05-19T01:34:17.601Z,7.90
2023-05-19T01:36:48.638Z,7.35
2023-05-19T01:39:15.714Z,8.05
2023-05-19T01:41:42.671Z,8.77
2023-05-19T01:44:09.926Z,7.68
2023-05-19T01:46:37.713Z,7.22
2023-05-19T01:49:05.775Z,8.57
2023-05-19T01:51:32.470Z,8.55
2023-05-19T01:53:59.239Z,7.63
2023-05-19T01:56:39.344Z,8.10
2023-05-19T01:59:25.675Z,8.15
2023-05-19T02:01:58.071Z,7.28
2023-05-19T02:04:40.039Z,7.78
2023-05-19T02:07:14.881Z,6.80
2023-05-19T02:09:49.380Z,8.35
2023-05-19T02:12:26.580Z,7.47
2023-05-19T02:14:57.811Z,6.72
2023-05-19T02:17:27.525Z,7.25
2023-05-19T02:19:54.229Z,7.30
2023-05-19T02:22:21.121Z,7.97
2023-05-19T02:24:51.534Z,7.63
2023-05-19T02:27:18.789Z,7.28
2023-05-19T02:29:45.450Z,6.97
2023-05-19T02:32:12.275Z,6.93
2023-05-19T02:34:40.178Z,7.05
2023-05-19T02:37:07.876Z,7.72
2023-05-19T02:39:35.373Z,7.32
2023-05-19T02:42:02.316Z,7.88
2023-05-19T02:44:29.024Z,7.60
2023-05-19T02:46:56.955Z,8.45
2023-05-19T02:49:23.733Z,6.40
2023-05-19T02:51:50.414Z,6.82
2023-05-19T02:54:17.135Z,7.70
2023-05-19T02:56:43.833Z,7.70
2023-05-19T02:59:10.619Z,6.97
2023-05-19T03:01:37.803Z,7.45
2023-05-19T03:04:04.868Z,7.70
2023-05-19T03:06:32.867Z,8.50
2023-05-19T03:08:59.576Z,7.10
2023-05-19T03:11:26.466Z,7.82
2023-05-19T03:13:53.115Z,8.10
2023-05-19T03:16:20.132Z,7.68
2023-05-19T03:18:46.872Z,8.05
2023-05-19T03:21:13.572Z,8.10
2023-05-19T03:23:40.309Z,7.60
2023-05-19T03:26:07.002Z,8.63
2023-05-19T03:28:33.672Z,7.97
2023-05-19T03:31:00.422Z,8.68
2023-05-19T03:33:32.649Z,8.15
2023-05-19T03:35:59.416Z,8.30
2023-05-19T03:38:28.509Z,6.82
2023-05-19T03:40:57.882Z,8.43
2023-05-19T03:43:24.859Z,8.43
2023-05-19T03:45:56.749Z,7.60
2023-05-19T03:48:41.922Z,7.32
2023-05-19T03:51:28.653Z,7.95
2023-05-19T03:53:59.753Z,7.93
2023-05-19T03:56:27.535Z,8.27
2023-05-19T03:58:54.857Z,7.60
2023-05-19T04:01:21.716Z,8.05
2023-05-19T04:03:48.423Z,8.65
2023-05-19T04:06:15.190Z,7.78
2023-05-19T04:08:41.894Z,7.18
2023-05-19T04:11:08.515Z,8.27
2023-05-19T04:13:35.837Z,7.82
2023-05-19T04:16:02.659Z,7.82
2023-05-19T04:18:29.521Z,7.90
2023-05-19T04:20:56.346Z,8.52
2023-05-19T04:23:23.007Z,9.27
2023-05-19T04:25:50.010Z,9.07
2023-05-19T04:28:17.985Z,8.85
2023-05-19T04:30:46.653Z,8.57
2023-05-19T04:33:13.788Z,8.45
2023-05-19T04:35:40.774Z,8.57
2023-05-19T04:38:10.074Z,8.48
2023-05-19T04:40:37.238Z,8.35
2023-05-19T04:43:04.214Z,8.27
2023-05-19T04:45:33.131Z,8.65
2023-05-19T04:48:02.062Z,9.27
2023-05-19T04:50:31.117Z,10.18
2023-05-19T04:52:59.270Z,8.75
2023-05-19T04:55:26.612Z,8.57
2023-05-19T04:57:53.725Z,8.10
2023-05-19T05:00:21.393Z,9.35
2023-05-19T05:03:05.184Z,8.90
2023-05-19T05:05:32.858Z,9.20
2023-05-19T05:08:00.506Z,8.98
2023-05-19T05:10:31.177Z,8.85
2023-05-19T05:12:58.387Z,8.98
2023-05-19T05:15:28.546Z,8.95
2023-05-19T05:17:55.730Z,8.55
2023-05-19T05:20:23.220Z,9.48
2023-05-19T05:22:50.852Z,8.80
2023-05-19T05:25:18.565Z,8.18
2023-05-19T05:27:45.410Z,9.20
2023-05-19T05:30:13.426Z,7.88
2023-05-19T05:32:41.278Z,8.77
2023-05-19T05:35:16.099Z,7.68
2023-05-19T05:37:43.045Z,7.88
2023-05-19T05:40:10.386Z,7.70
2023-05-19T05:42:37.115Z,8.68
2023-05-19T05:45:04.054Z,7.82
2023-05-19T05:47:31.882Z,7.90
2023-05-19T05:49:59.511Z,8.52
2023-05-19T05:52:30.334Z,7.95
2023-05-19T05:54:59.061Z,7.95
2023-05-19T05:57:27.057Z,8.18
2023-05-19T05:59:54.153Z,7.28
2023-05-19T06:02:21.841Z,7.63
2023-05-19T06:04:48.710Z,7.60
2023-05-19T06:07:15.652Z,6.95
2023-05-19T06:09:44.470Z,6.80
2023-05-19T06:12:11.487Z,6.53
2023-05-19T06:14:43.155Z,6.22
2023-05-19T06:17:24.958Z,5.90
2023-05-19T06:19:52.219Z,6.13
2023-05-19T06:22:18.980Z,5.70
2023-05-19T06:24:45.836Z,6.55
2023-05-19T06:27:12.697Z,5.90
2023-05-19T06:29:39.507Z,5.28
2023-05-19T06:32:08.254Z,5.55
2023-05-19T06:34:35.587Z,5.55
2023-05-19T06:37:02.577Z,5.45
2023-05-19T06:39:31.107Z,5.13
2023-05-19T06:41:57.902Z,5.40
2023-05-19T06:44:44.478Z,5.10
2023-05-19T06:47:12.402Z,5.80
2023-05-19T06:49:39.186Z,5.22
2023-05-19T06:52:06.517Z,5.22
2023-05-19T06:54:33.439Z,5.57
2023-05-19T06:57:00.151Z,5.03
2023-05-19T06:59:27.051Z,5.18
2023-05-19T07:01:53.862Z,5.03
2023-05-19T07:04:20.739Z,5.57
2023-05-19T07:06:47.809Z,5.28
2023-05-19T07:09:14.712Z,4.93
2023-05-19T07:11:42.078Z,5.07
2023-05-19T07:14:10.730Z,4.60
2023-05-19T07:16:37.549Z,4.45
2023-05-19T07:19:05.412Z,4.78
2023-05-19T07:21:33.296Z,5.03
2023-05-19T07:24:00.074Z,4.57
2023-05-19T07:26:29.013Z,4.07
2023-05-19T07:28:55.918Z,4.10
2023-05-19T07:31:22.761Z,4.05
2023-05-19T07:33:49.565Z,3.90
2023-05-19T07:36:17.013Z,4.03
2023-05-19T07:38:44.225Z,3.60
2023-05-19T07:41:11.061Z,3.35
2023-05-19T07:43:37.738Z,2.90
2023-05-19T07:46:05.518Z,4.32
2023-05-19T07:48:32.187Z,3.08
2023-05-19T07:50:58.908Z,3.30
2023-05-19T07:53:26.017Z,3.60
2023-05-19T07:55:52.670Z,2.90
2023-05-19T07:58:19.863Z,2.88
2023-05-19T08:00:46.575Z,2.92
2023-05-19T08:03:13.805Z,2.88
2023-05-19T08:05:40.649Z,3.00
2023-05-19T08:08:07.406Z,3.28
2023-05-19T08:10:34.410Z,2.95
2023-05-19T08:13:01.317Z,2.40
2023-05-19T08:15:28.077Z,2.78
2023-05-19T08:17:54.830Z,3.00
2023-05-19T08:20:23.008Z,2.63
2023-05-19T08:22:49.860Z,2.60
2023-05-19T08:25:16.680Z,2.53
2023-05-19T08:27:43.389Z,2.60
2023-05-19T08:30:10.665Z,2.47
2023-05-19T08:32:37.439Z,2.30
2023-05-19T08:35:04.887Z,2.90
2023-05-19T08:37:33.356Z,2.40
2023-05-19T08:40:00.946Z,2.70
2023-05-19T08:42:27.642Z,2.67
2023-05-19T08:44:54.318Z,2.80
2023-05-19T08:47:21.059Z,2.20
2023-05-19T08:49:52.516Z,2.40
2023-05-19T08:52:53.095Z,2.42
2023-05-19T08:55:34.628Z,2.30
2023-05-19T08:58:03.716Z,2.70
2023-05-19T09:00:30.893Z,2.60
2023-05-19T09:03:10.823Z,2.20
2023-05-19T09:05:45.798Z,2.22
2023-05-19T09:08:12.676Z,2.25
2023-05-19T09:10:39.501Z,2.38
2023-05-19T09:13:06.429Z,2.22
2023-05-19T09:15:36.930Z,2.78
2023-05-19T09:18:11.916Z,2.30
2023-05-19T09:20:43.411Z,2.17
2023-05-19T09:23:17.469Z,2.60
2023-05-19T09:25:48.237Z,2.00
2023-05-19T09:28:15.894Z,1.90
2023-05-19T09:30:42.642Z,2.25
2023-05-19T09:33:10.122Z,2.30
2023-05-19T09:35:37.243Z,2.10
2023-05-19T09:38:04.030Z,2.10
2023-05-19T09:40:30.839Z,1.98
2023-05-19T09:42:57.591Z,1.85
2023-05-19T09:45:27.259Z,2.15
2023-05-19T09:47:54.021Z,2.40
2023-05-19T09:50:21.056Z,2.67
2023-05-19T09:52:48.218Z,2.50
2023-05-19T09:55:15.545Z,2.03
2023-05-19T09:57:42.285Z,2.53
2023-05-19T10:00:17.416Z,1.92
2023-05-19T10:02:46.181Z,2.60
2023-05-19T10:05:16.990Z,2.22
2023-05-19T10:07:45.748Z,2.20
2023-05-19T10:10:13.965Z,2.30
2023-05-19T10:12:41.678Z,2.33
2023-05-19T10:15:13.098Z,2.55
2023-05-19T10:17:40.913Z,2.20
2023-05-19T10:20:15.493Z,2.15
2023-05-19T10:22:43.650Z,2.20
2023-05-19T10:25:11.754Z,2.55
2023-05-19T10:27:45.295Z,2.17
2023-05-19T10:32:45.126Z,2.13
2023-05-19T10:35:33.062Z,2.35
2023-05-19T10:38:18.259Z,2.40
2023-05-19T10:40:50.794Z,2.28
2023-05-19T10:43:36.278Z,2.23
2023-05-19T10:46:04.469Z,2.00
2023-05-19T10:48:33.777Z,2.38
2023-05-19T10:51:00.937Z,2.60
2023-05-19T10:53:35.054Z,2.20
2023-05-19T10:56:07.019Z,2.38
2023-05-19T10:58:45.749Z,2.88
2023-05-19T11:01:17.371Z,2.55
2023-05-19T11:03:48.169Z,1.92
2023-05-19T11:06:31.953Z,2.00
2023-05-19T11:09:00.956Z,2.10
2023-05-19T11:11:44.565Z,2.28
2023-05-19T11:16:40.060Z,2.42
2023-05-19T11:19:06.807Z,2.50
2023-05-19T11:21:48.296Z,2.63
2023-05-19T11:24:52.197Z,2.13
2023-05-19T11:27:24.726Z,1.88
2023-05-19T11:29:51.884Z,2.03
2023-05-19T11:32:21.307Z,1.92
2023-05-19T11:34:49.437Z,1.67
2023-05-19T11:37:16.259Z,2.33
2023-05-19T11:39:43.808Z,2.20
2023-05-19T11:42:13.169Z,2.03
2023-05-19T11:44:41.374Z,1.67
2023-05-19T11:47:08.616Z,2.20
2023-05-19T11:49:35.431Z,1.83
2023-05-19T11:52:03.313Z,2.00
2023-05-19T11:54:36.625Z,3.00
2023-05-19T11:59:37.711Z,2.00
2023-05-19T12:02:16.819Z,2.20
2023-05-19T12:04:44.737Z,1.98
2023-05-19T12:07:12.531Z,2.00
2023-05-19T12:09:39.763Z,2.97
2023-05-19T12:12:06.600Z,2.58
2023-05-19T12:14:34.455Z,2.20
2023-05-19T12:17:13.522Z,2.15
2023-05-19T12:19:41.589Z,2.17
2023-05-19T12:22:08.576Z,1.80
2023-05-19T12:24:36.678Z,2.05
2023-05-19T12:27:14.315Z,1.95
2023-05-19T12:29:41.165Z,2.20
2023-05-19T12:32:08.390Z,1.80
2023-05-19T12:34:38.685Z,2.53
2023-05-19T12:37:06.112Z,2.10
2023-05-19T12:39:33.774Z,1.95
2023-05-19T12:42:07.814Z,2.25
2023-05-19T12:44:46.667Z,2.10
2023-05-19T12:47:18.722Z,2.30
2023-05-19T12:50:01.485Z,2.55
2023-05-19T12:52:29.423Z,2.08
2023-05-19T12:55:01.238Z,2.22
2023-05-19T12:57:31.621Z,2.00
2023-05-19T13:00:07.120Z,2.28
2023-05-19T13:02:36.152Z,2.28
2023-05-19T13:05:04.914Z,2.05
2023-05-19T13:07:31.719Z,2.00
2023-05-19T13:09:58.683Z,2.03
2023-05-19T13:12:26.164Z,2.30
2023-05-19T13:14:55.409Z,2.28
2023-05-19T13:17:22.406Z,1.83
2023-05-19T13:19:49.098Z,2.45
2023-05-19T13:22:15.768Z,1.88
2023-05-19T13:24:42.668Z,1.80
2023-05-19T13:27:09.355Z,1.90
2023-05-19T13:29:36.117Z,2.42
2023-05-19T13:32:02.755Z,2.30
2023-05-19T13:34:29.446Z,1.80
2023-05-19T13:36:56.820Z,2.20
2023-05-19T13:39:23.530Z,2.10
2023-05-19T13:41:50.539Z,2.22
2023-05-19T13:44:17.193Z,2.67
2023-05-19T13:46:46.107Z,2.97
2023-05-19T13:49:30.506Z,2.35
2023-05-19T13:52:00.436Z,2.25
2023-05-19T13:54:27.560Z,2.58
2023-05-19T13:56:54.297Z,2.42
2023-05-19T13:59:23.939Z,2.47
2023-05-19T14:01:50.692Z,2.00
2023-05-19T14:04:18.528Z,2.72
2023-05-19T14:06:46.326Z,2.13
2023-05-19T14:09:13.219Z,2.30
2023-05-19T14:11:39.963Z,1.98
2023-05-19T14:14:06.569Z,2.10
2023-05-19T14:16:33.491Z,2.03
2023-05-19T14:19:00.409Z,2.15
2023-05-19T14:21:27.445Z,2.17
2023-05-19T14:23:54.144Z,2.35
2023-05-19T14:26:21.912Z,2.10
2023-05-19T14:28:48.585Z,2.38
2023-05-19T14:31:15.524Z,2.55
2023-05-19T14:33:42.267Z,2.25
2023-05-19T14:36:09.546Z,2.08
2023-05-19T14:38:36.756Z,2.45
2023-05-19T14:41:03.538Z,2.30
2023-05-19T14:43:30.247Z,2.30
2023-05-19T14:45:57.155Z,2.10
2023-05-19T14:48:23.787Z,2.17
2023-05-19T14:50:50.635Z,2.42
2023-05-19T14:53:17.412Z,2.00
2023-05-19T14:55:44.157Z,2.30
2023-05-19T14:58:26.781Z,2.05
2023-05-19T15:00:54.787Z,1.90
2023-05-19T15:03:23.269Z,2.35
2023-05-19T15:05:49.920Z,2.47
2023-05-19T15:08:16.672Z,3.05
2023-05-19T15:10:43.337Z,2.38
2023-05-19T15:13:11.849Z,2.45
2023-05-19T15:15:38.571Z,2.67
2023-05-19T15:18:05.292Z,2.70
2023-05-19T15:20:32.166Z,2.38
2023-05-19T15:22:58.896Z,2.35
2023-05-19T15:25:25.604Z,2.53
2023-05-19T15:27:52.279Z,2.20
2023-05-19T15:30:19.075Z,2.53
2023-05-19T15:32:45.952Z,2.13
2023-05-19T15:35:12.653Z,1.90
2023-05-19T15:37:39.365Z,2.00
2023-05-19T15:40:07.041Z,2.35
2023-05-19T15:42:33.770Z,2.10
2023-05-19T15:45:00.557Z,2.58
2023-05-19T15:47:27.327Z,1.75
2023-05-19T15:49:54.101Z,2.00
2023-05-19T15:52:21.109Z,2.20
2023-05-19T15:54:48.697Z,2.63
2023-05-19T15:57:15.372Z,2.00
2023-05-19T15:59:42.212Z,1.70
2023-05-19T16:02:08.944Z,1.90
2023-05-19T16:04:35.760Z,1.80
2023-05-19T16:07:02.377Z,1.98
2023-05-19T16:09:28.985Z,1.70
2023-05-19T16:11:55.665Z,1.80
2023-05-19T16:14:23.203Z,1.75
2023-05-19T16:16:50.009Z,1.80
2023-05-19T16:19:16.841Z,1.55
2023-05-19T16:21:43.514Z,2.70
2023-05-19T16:24:10.253Z,2.25
2023-05-19T16:26:36.882Z,2.00
2023-05-19T16:29:03.523Z,2.00
2023-05-19T16:31:30.723Z,2.00
2023-05-19T16:33:57.507Z,1.98
2023-05-19T16:36:24.252Z,1.90
2023-05-19T16:38:50.888Z,1.80
2023-05-19T16:41:17.673Z,2.00
2023-05-19T16:43:44.358Z,1.63
2023-05-19T16:46:12.389Z,2.17
2023-05-19T16:48:39.102Z,1.67
2023-05-19T16:51:06.403Z,1.90
2023-05-19T16:53:33.090Z,1.90
2023-05-19T16:55:59.767Z,1.80
2023-05-19T16:58:28.028Z,1.52
2023-05-19T17:00:56.867Z,2.10
2023-05-19T17:03:24.110Z,2.17
2023-05-19T17:05:50.923Z,1.75
2023-05-19T17:08:17.591Z,2.30
2023-05-19T17:10:44.891Z,1.80
2023-05-19T17:13:11.877Z,1.70
2023-05-19T17:15:39.598Z,2.25
2023-05-19T17:18:07.688Z,1.90
2023-05-19T17:20:34.669Z,1.92
2023-05-19T17:23:01.956Z,2.15
2023-05-19T17:25:28.620Z,1.88
2023-05-19T17:27:56.322Z,1.95
2023-05-19T17:30:23.001Z,1.95
2023-05-19T17:32:50.021Z,1.80
2023-05-19T17:35:16.835Z,2.00
2023-05-19T17:37:43.532Z,2.60
2023-05-19T17:40:10.900Z,1.80
2023-05-19T17:42:37.611Z,2.20
2023-05-19T17:45:07.479Z,2.65
2023-05-19T17:47:34.595Z,2.08
2023-05-19T17:50:01.307Z,2.00
2023-05-19T17:52:28.271Z,1.70
2023-05-19T17:54:55.275Z,2.42
2023-05-19T17:57:25.082Z,1.98
2023-05-19T17:59:52.211Z,2.03
2023-05-19T18:02:19.260Z,2.22
2023-05-19T18:04:46.413Z,2.30
2023-05-19T18:07:14.068Z,2.20
2023-05-19T18:09:45.309Z,2.20
2023-05-19T18:12:12.586Z,2.67
2023-05-19T18:14:39.591Z,2.50
2023-05-19T18:17:06.397Z,2.35
2023-05-19T18:19:33.019Z,2.85
2023-05-19T18:21:59.797Z,2.63
2023-05-19T18:24:26.449Z,2.30
2023-05-19T18:26:53.113Z,2.40
2023-05-19T18:29:19.859Z,2.85
2023-05-19T18:31:46.534Z,2.83
2023-05-19T18:34:14.045Z,2.42
2023-05-19T18:36:41.430Z,2.70
2023-05-19T18:39:08.224Z,2.58
2023-05-19T18:41:37.354Z,2.50
2023-05-19T18:44:05.911Z,2.45
2023-05-19T18:46:33.671Z,2.63
2023-05-19T18:49:00.535Z,2.42
2023-05-19T18:51:27.299Z,2.58
2023-05-19T18:53:54.028Z,2.75
2023-05-19T18:56:24.576Z,2.78
2023-05-19T18:58:51.275Z,2.58
2023-05-19T19:01:18.310Z,2.40
2023-05-19T19:03:46.742Z,2.70
2023-05-19T19:06:13.504Z,2.85
2023-05-19T19:08:40.124Z,2.72
2023-05-19T19:11:09.408Z,2.58
2023-05-19T19:13:36.265Z,2.70
2023-05-19T19:16:03.327Z,2.33
2023-05-19T19:18:30.058Z,2.55
2023-05-19T19:20:57.642Z,2.35
2023-05-19T19:23:24.365Z,2.80
2023-05-19T19:25:51.216Z,2.65
2023-05-19T19:28:17.958Z,2.72
2023-05-19T19:30:45.823Z,2.42
2023-05-19T19:33:12.563Z,3.00
2023-05-19T19:35:39.255Z,2.95
2023-05-19T19:38:06.135Z,2.50
2023-05-19T19:40:33.103Z,2.80
2023-05-19T19:42:59.929Z,2.40
2023-05-19T19:45:26.611Z,2.58
2023-05-19T19:47:53.646Z,2.83
2023-05-19T19:50:20.289Z,2.78
2023-05-19T19:52:46.888Z,2.80
2023-05-19T19:55:13.628Z,2.63
2023-05-19T19:57:40.302Z,2.50
2023-05-19T20:00:08.376Z,2.63
2023-05-19T20:02:39.517Z,2.20
2023-05-19T20:05:10.139Z,2.70
2023-05-19T20:07:36.736Z,4.03
2023-05-19T20:10:03.565Z,2.70
2023-05-19T20:12:30.291Z,2.80
2023-05-19T20:14:57.409Z,2.47
2023-05-19T20:17:24.185Z,2.65
2023-05-19T20:19:50.958Z,2.60
2023-05-19T20:22:17.660Z,2.97
2023-05-19T20:24:44.370Z,2.60
2023-05-19T20:27:11.048Z,2.67
2023-05-19T20:29:37.762Z,3.60
2023-05-19T20:32:04.581Z,3.22
2023-05-19T20:34:31.515Z,2.92
2023-05-19T20:36:58.304Z,3.08
2023-05-19T20:39:24.995Z,2.80
2023-05-19T20:41:51.684Z,2.63
2023-05-19T20:44:18.386Z,2.60
2023-05-19T20:46:45.415Z,3.10
2023-05-19T20:49:12.144Z,2.92
2023-05-19T20:51:38.794Z,3.28
2023-05-19T20:54:07.263Z,3.00
2023-05-19T20:56:34.126Z,2.50
2023-05-19T20:59:00.832Z,3.10
2023-05-19T21:01:28.291Z,2.80
2023-05-19T21:03:54.967Z,3.10
2023-05-19T21:06:21.643Z,2.90
2023-05-19T21:08:48.293Z,4.00
2023-05-19T21:11:14.930Z,2.90
2023-05-19T21:13:41.660Z,3.03
2023-05-19T21:16:08.364Z,2.75
2023-05-19T21:18:35.048Z,2.83
2023-05-19T21:21:03.843Z,3.20
2023-05-19T21:23:31.003Z,3.53
2023-05-19T21:25:58.749Z,3.55
2023-05-19T21:28:25.520Z,3.50
2023-05-19T21:30:52.212Z,3.72
2023-05-19T21:33:18.846Z,3.72
2023-05-19T21:35:46.417Z,3.80
2023-05-19T21:38:23.494Z,3.65
2023-05-19T21:40:51.863Z,3.50
2023-05-19T21:43:19.330Z,3.65
2023-05-19T21:45:46.070Z,4.00
2023-05-19T21:48:13.168Z,4.13
2023-05-19T21:50:39.878Z,3.88
2023-05-19T21:53:06.614Z,4.53
2023-05-19T21:55:33.410Z,4.20
2023-05-19T21:58:01.685Z,4.85
2023-05-19T22:00:29.340Z,4.10
2023-05-19T22:02:56.197Z,4.30
2023-05-19T22:05:22.891Z,4.35
2023-05-19T22:07:49.638Z,4.25
2023-05-19T22:10:16.540Z,4.43
2023-05-19T22:12:43.372Z,4.43
2023-05-19T22:15:10.920Z,4.55
2023-05-19T22:17:37.589Z,5.22
2023-05-19T22:20:04.636Z,4.70
2023-05-19T22:22:31.345Z,4.97
2023-05-19T22:24:58.878Z,4.57
2023-05-19T22:27:25.501Z,4.70
2023-05-19T22:29:52.118Z,5.18
2023-05-19T22:32:19.539Z,4.70
2023-05-19T22:34:46.686Z,4.70
2023-05-19T22:37:13.393Z,4.72
2023-05-19T22:39:40.006Z,4.97
2023-05-19T22:42:06.656Z,5.72
2023-05-19T22:44:33.310Z,5.00
2023-05-19T22:47:00.017Z,5.15
2023-05-19T22:49:27.445Z,5.68
2023-05-19T22:51:54.125Z,4.93
2023-05-19T22:54:20.774Z,5.15
2023-05-19T22:56:48.904Z,5.43
2023-05-19T22:59:17.981Z,5.35
2023-05-19T23:01:46.533Z,5.55
2023-05-19T23:04:14.013Z,5.55
2023-05-19T23:06:40.811Z,5.50
2023-05-19T23:09:07.693Z,5.05
2023-05-19T23:11:35.836Z,5.22
2023-05-19T23:14:02.703Z,5.35
2023-05-19T23:16:29.540Z,5.75
2023-05-19T23:18:56.253Z,5.45
2023-05-19T23:21:22.926Z,5.25
2023-05-19T23:23:49.977Z,5.60
2023-05-19T23:26:16.727Z,5.70
2023-05-19T23:28:43.748Z,6.40
2023-05-19T23:31:10.561Z,6.55
2023-05-19T23:33:37.333Z,6.10
2023-05-19T23:36:08.694Z,5.78
2023-05-19T23:38:36.548Z,6.22
2023-05-19T23:41:03.722Z,6.22
2023-05-19T23:43:32.244Z,5.55
2023-05-19T23:45:59.345Z,5.90
2023-05-19T23:48:28.810Z,5.45
2023-05-19T23:50:55.448Z,6.10
2023-05-19T23:53:22.121Z,6.28
2023-05-19T23:55:48.737Z,6.13
2023-05-19T23:58:15.963Z,5.70
